Time;durP1;ratioP1;P1;durP2;ratioP2;P2;SDS_P1;SDS_P2;PMS_P1;PMS_P2;Temp;Humidity;BMP_temperature;BMP_pressure;BME280_temperature;BME280_humidity;BME280_pressure;Samples;Min_cycle;Max_cycle;Signal;HPM_P1;HPM_P2
2022/09/09 00:00:07;;;;;;;;;;;14.20;99.90;;;;;;5084000;28;20413;-66
2022/09/09 00:02:35;;;;;;;;;;;14.10;99.90;;;;;;5080622;28;19931;-66
2022/09/09 00:05:14;;;;;;;;;;;14.10;99.90;;;;;;5082783;28;20010;-66
2022/09/09 00:07:44;;;;;;;;;;;14.10;99.90;;;;;;5081705;28;19938;-67
2022/09/09 00:10:17;;;;;;;;;;;14.10;99.90;;;;;;5081243;28;19971;-66
2022/09/09 00:12:50;;;;;;;;;;;14.10;99.90;;;;;;5081364;28;19932;-67
2022/09/09 00:15:20;;;;;;;;;;;14.10;99.90;;;;;;5080939;28;20036;-66
2022/09/09 00:17:52;;;;;;;;;;;14.20;99.90;;;;;;5077781;28;20379;-66
2022/09/09 00:20:23;;;;;;;;;;;14.10;99.90;;;;;;5080835;28;19970;-65
2022/09/09 00:22:54;;;;;;;;;;;14.20;99.90;;;;;;5076619;28;19924;-66
2022/09/09 00:25:24;;;;;;;;;;;14.20;99.90;;;;;;5079109;28;19924;-66
2022/09/09 00:27:51;;;;;;;;;;;14.20;99.90;;;;;;5078082;28;19952;-65
2022/09/09 00:30:22;;;;;;;;;;;14.20;99.90;;;;;;5079625;28;19959;-67
2022/09/09 00:32:51;;;;;;;;;;;14.20;99.90;;;;;;5081244;28;20055;-66
2022/09/09 00:35:25;;;;;;;;;;;14.20;99.90;;;;;;5082434;28;20026;-67
2022/09/09 00:37:53;;;;;;;;;;;14.20;99.90;;;;;;5081181;28;19973;-67
2022/09/09 00:40:23;;;;;;;;;;;14.20;99.90;;;;;;5077160;28;19982;-68
2022/09/09 00:42:53;;;;;;;;;;;14.20;99.90;;;;;;5079719;28;20398;-67
2022/09/09 00:45:31;;;;;;;;;;;14.20;99.90;;;;;;5079371;28;19930;-66
2022/09/09 00:48:03;;;;;;;;;;;14.20;99.90;;;;;;5077145;28;19924;-68
2022/09/09 00:50:36;;;;;;;;;;;14.20;99.90;;;;;;5077474;28;19931;-67
2022/09/09 00:53:18;;;;;;;;;;;14.20;99.90;;;;;;5079981;28;20202;-68
2022/09/09 00:55:48;;;;;;;;;;;14.20;99.90;;;;;;5078638;28;19963;-67
2022/09/09 00:58:15;;;;;;;;;;;14.20;99.90;;;;;;5080018;28;20318;-67
2022/09/09 01:00:43;;;;;;;;;;;14.20;99.90;;;;;;5080174;28;20583;-67
2022/09/09 01:03:20;;;;;;;;;;;14.20;99.90;;;;;;5078088;28;19924;-67
2022/09/09 01:05:50;;;;;;;;;;;14.20;99.90;;;;;;5077960;28;19935;-67
2022/09/09 01:08:27;;;;;;;;;;;14.10;99.90;;;;;;5078707;28;20395;-67
2022/09/09 01:10:55;;;;;;;;;;;14.20;99.90;;;;;;5081268;28;19931;-67
2022/09/09 01:13:23;;;;;;;;;;;14.20;99.90;;;;;;5078836;28;19932;-67
2022/09/09 01:15:53;;;;;;;;;;;14.20;99.90;;;;;;5076565;28;20381;-67
2022/09/09 01:18:22;;;;;;;;;;;14.20;99.90;;;;;;5081024;28;19924;-67
2022/09/09 01:20:53;;;;;;;;;;;14.30;99.90;;;;;;5075215;28;19971;-66
2022/09/09 01:23:38;;;;;;;;;;;14.20;99.90;;;;;;5075969;28;20275;-67
2022/09/09 01:26:11;;;;;;;;;;;14.20;99.90;;;;;;5078513;28;19932;-67
2022/09/09 01:28:38;;;;;;;;;;;14.20;99.90;;;;;;5078866;28;20401;-67
2022/09/09 01:31:06;;;;;;;;;;;14.20;99.90;;;;;;5081191;28;20306;-67
2022/09/09 01:33:33;;;;;;;;;;;14.20;99.90;;;;;;5078410;28;20506;-65
2022/09/09 01:36:01;;;;;;;;;;;14.20;99.90;;;;;;5077970;28;19932;-67
2022/09/09 01:38:28;;;;;;;;;;;14.20;99.90;;;;;;5081335;28;19924;-66
2022/09/09 01:40:55;;;;;;;;;;;14.20;99.90;;;;;;5084149;28;19930;-66
2022/09/09 01:43:24;;;;;;;;;;;14.20;99.90;;;;;;5082152;28;19935;-66
2022/09/09 01:45:53;;;;;;;;;;;14.20;99.90;;;;;;5081097;28;20028;-66
2022/09/09 01:48:22;;;;;;;;;;;14.20;99.90;;;;;;5081666;28;19935;-67
2022/09/09 01:50:48;;;;;;;;;;;14.30;99.90;;;;;;5085100;28;19928;-67
2022/09/09 01:53:16;;;;;;;;;;;14.30;99.90;;;;;;5087453;28;19977;-67
2022/09/09 01:55:47;;;;;;;;;;;14.40;99.90;;;;;;5090959;28;20376;-67
2022/09/09 01:58:23;;;;;;;;;;;14.40;99.90;;;;;;5090307;28;19924;-67
2022/09/09 02:00:56;;;;;;;;;;;14.40;99.90;;;;;;5091704;28;20469;-67
2022/09/09 02:03:26;;;;;;;;;;;14.50;99.90;;;;;;5091714;28;19930;-67
2022/09/09 02:05:56;;;;;;;;;;;14.50;99.90;;;;;;5093358;28;19924;-66
2022/09/09 02:08:25;;;;;;;;;;;14.50;99.90;;;;;;5091051;28;20362;-67
2022/09/09 02:10:56;;;;;;;;;;;14.50;99.90;;;;;;5091653;28;19930;-67
2022/09/09 02:13:23;;;;;;;;;;;14.50;99.90;;;;;;5091965;28;19924;-67
2022/09/09 02:15:53;;;;;;;;;;;14.50;99.90;;;;;;5092792;28;19986;-67
2022/09/09 02:18:23;;;;;;;;;;;14.50;99.90;;;;;;5088436;28;20383;-67
2022/09/09 02:20:51;;;;;;;;;;;14.50;99.90;;;;;;5087982;28;19952;-67
2022/09/09 02:23:18;;;;;;;;;;;14.40;99.90;;;;;;5089603;28;20019;-67
2022/09/09 02:25:46;;;;;;;;;;;14.40;99.90;;;;;;5092216;28;19932;-66
2022/09/09 02:28:14;;;;;;;;;;;14.40;99.90;;;;;;5091321;28;19967;-67
2022/09/09 02:30:42;;;;;;;;;;;14.40;99.90;;;;;;5090817;28;20298;-67
2022/09/09 02:33:12;;;;;;;;;;;14.40;99.90;;;;;;5091527;28;19930;-67
2022/09/09 02:35:39;;;;;;;;;;;14.40;99.90;;;;;;5092955;28;19994;-68
2022/09/09 02:38:07;;;;;;;;;;;14.40;99.90;;;;;;5088124;28;19943;-68
2022/09/09 02:40:34;;;;;;;;;;;14.40;99.90;;;;;;5091980;28;19932;-68
2022/09/09 02:43:02;;;;;;;;;;;14.40;99.90;;;;;;5091357;28;20377;-68
2022/09/09 02:45:34;;;;;;;;;;;14.40;99.90;;;;;;5091869;28;20431;-68
2022/09/09 02:48:05;;;;;;;;;;;14.40;99.90;;;;;;5088681;28;20294;-68
2022/09/09 02:50:34;;;;;;;;;;;14.40;99.90;;;;;;5089829;28;20011;-68
2022/09/09 02:53:07;;;;;;;;;;;14.40;99.90;;;;;;5087846;28;19924;-66
2022/09/09 02:55:38;;;;;;;;;;;14.40;99.90;;;;;;5092034;28;19931;-67
2022/09/09 02:58:06;;;;;;;;;;;14.50;99.90;;;;;;5088902;28;19924;-67
2022/09/09 03:00:35;;;;;;;;;;;14.50;99.90;;;;;;5090764;28;19924;-66
2022/09/09 03:03:02;;;;;;;;;;;14.50;99.90;;;;;;5090091;28;19931;-67
2022/09/09 03:05:29;;;;;;;;;;;14.50;99.90;;;;;;5092776;28;19924;-66
2022/09/09 03:07:57;;;;;;;;;;;14.50;99.90;;;;;;5090170;28;20015;-66
2022/09/09 03:10:23;;;;;;;;;;;14.50;99.90;;;;;;5089700;28;19971;-67
2022/09/09 03:12:50;;;;;;;;;;;14.50;99.90;;;;;;5089015;28;19929;-66
2022/09/09 03:15:17;;;;;;;;;;;14.50;99.90;;;;;;5092234;28;20500;-67
2022/09/09 03:17:43;;;;;;;;;;;14.50;99.90;;;;;;5089339;28;19939;-67
2022/09/09 03:20:10;;;;;;;;;;;14.50;99.90;;;;;;5093136;28;19924;-66
2022/09/09 03:22:37;;;;;;;;;;;14.50;99.90;;;;;;5091160;28;20039;-66
2022/09/09 03:25:05;;;;;;;;;;;14.50;99.90;;;;;;5092922;28;19925;-66
2022/09/09 03:27:32;;;;;;;;;;;14.40;99.90;;;;;;5079175;28;19928;-67
2022/09/09 03:29:59;;;;;;;;;;;14.40;99.90;;;;;;5088818;28;19935;-67
2022/09/09 03:32:26;;;;;;;;;;;14.40;99.90;;;;;;5089854;28;19924;-66
2022/09/09 03:34:53;;;;;;;;;;;14.40;99.90;;;;;;5091088;28;19931;-66
2022/09/09 03:37:20;;;;;;;;;;;14.40;99.90;;;;;;5086760;28;20014;-67
2022/09/09 03:39:47;;;;;;;;;;;14.40;99.90;;;;;;5089789;28;19927;-67
2022/09/09 03:42:18;;;;;;;;;;;14.50;99.90;;;;;;5087666;28;20280;-68
2022/09/09 03:44:46;;;;;;;;;;;14.50;99.90;;;;;;5089279;28;20390;-67
2022/09/09 03:47:13;;;;;;;;;;;14.40;99.90;;;;;;5086463;28;19924;-66
2022/09/09 03:49:40;;;;;;;;;;;14.50;99.90;;;;;;5091020;28;20011;-66
2022/09/09 03:52:07;;;;;;;;;;;14.40;99.90;;;;;;5088575;28;19982;-66
2022/09/09 03:54:33;;;;;;;;;;;14.50;99.90;;;;;;5091273;28;19967;-66
2022/09/09 03:57:00;;;;;;;;;;;14.40;99.90;;;;;;5089288;28;20278;-67
2022/09/09 03:59:28;;;;;;;;;;;14.40;99.90;;;;;;5088273;28;19924;-65
2022/09/09 04:01:56;;;;;;;;;;;14.50;99.90;;;;;;5090002;28;19928;-66
2022/09/09 04:04:23;;;;;;;;;;;14.50;99.90;;;;;;5090633;28;19924;-67
2022/09/09 04:06:50;;;;;;;;;;;14.50;99.90;;;;;;5088188;28;20031;-67
2022/09/09 04:09:17;;;;;;;;;;;14.60;99.90;;;;;;5088700;28;19950;-67
2022/09/09 04:11:44;;;;;;;;;;;14.60;99.90;;;;;;5089380;28;20430;-67
2022/09/09 04:14:10;;;;;;;;;;;14.60;99.90;;;;;;5086761;28;19924;-67
2022/09/09 04:16:38;;;;;;;;;;;14.70;99.90;;;;;;5089940;28;19931;-67
2022/09/09 04:19:06;;;;;;;;;;;14.70;99.90;;;;;;5089837;28;20456;-67
2022/09/09 04:21:33;;;;;;;;;;;14.70;99.90;;;;;;5090764;28;19924;-67
2022/09/09 04:23:59;;;;;;;;;;;14.60;99.90;;;;;;5088097;28;19924;-66
2022/09/09 04:26:26;;;;;;;;;;;14.60;99.90;;;;;;5083275;28;19931;-67
2022/09/09 04:28:53;;;;;;;;;;;14.60;99.90;;;;;;5088175;28;19925;-68
2022/09/09 04:31:21;;;;;;;;;;;14.60;99.90;;;;;;5086853;28;20333;-67
2022/09/09 04:33:49;;;;;;;;;;;14.50;99.90;;;;;;5088389;28;20402;-67
2022/09/09 04:36:16;;;;;;;;;;;14.50;99.90;;;;;;5089881;28;20324;-67
2022/09/09 04:38:44;;;;;;;;;;;14.50;99.90;;;;;;5088537;28;19932;-67
2022/09/09 04:41:11;;;;;;;;;;;14.50;99.90;;;;;;5090217;28;19927;-67
2022/09/09 04:43:38;;;;;;;;;;;14.50;99.90;;;;;;5084023;28;19932;-67
2022/09/09 04:46:05;;;;;;;;;;;14.50;99.90;;;;;;5088680;28;20019;-66
2022/09/09 04:48:32;;;;;;;;;;;14.50;99.90;;;;;;5089253;28;20041;-68
2022/09/09 04:51:01;;;;;;;;;;;14.50;99.90;;;;;;5086874;28;20356;-67
2022/09/09 04:53:28;;;;;;;;;;;14.50;99.90;;;;;;5087825;28;20409;-67
2022/09/09 04:56:01;;;;;;;;;;;14.60;99.90;;;;;;5088778;28;19924;-68
2022/09/09 04:58:28;;;;;;;;;;;14.60;99.90;;;;;;5087184;28;19934;-67
2022/09/09 05:00:55;;;;;;;;;;;14.60;99.90;;;;;;5088692;28;20327;-67
2022/09/09 05:03:22;;;;;;;;;;;14.70;99.90;;;;;;5080453;28;20371;-67
2022/09/09 05:05:48;;;;;;;;;;;14.70;99.90;;;;;;5088996;28;20433;-67
2022/09/09 05:08:17;;;;;;;;;;;14.70;99.90;;;;;;5084681;28;19928;-69
2022/09/09 05:10:44;;;;;;;;;;;14.70;99.90;;;;;;5089480;28;19924;-68
2022/09/09 05:13:11;;;;;;;;;;;14.70;99.90;;;;;;5083671;28;20558;-69
2022/09/09 05:15:37;;;;;;;;;;;14.70;99.90;;;;;;5089616;28;20014;-68
2022/09/09 05:18:04;;;;;;;;;;;14.70;99.90;;;;;;5074767;28;19931;-69
2022/09/09 05:20:31;;;;;;;;;;;14.70;99.90;;;;;;5079333;28;19924;-68
2022/09/09 05:22:58;;;;;;;;;;;14.80;99.90;;;;;;5078964;28;19940;-69
2022/09/09 05:25:26;;;;;;;;;;;14.80;99.90;;;;;;5088152;28;19928;-69
2022/09/09 05:27:54;;;;;;;;;;;14.80;99.90;;;;;;5077875;28;19996;-68
2022/09/09 05:30:22;;;;;;;;;;;14.90;99.90;;;;;;5089586;28;20356;-66
2022/09/09 05:32:48;;;;;;;;;;;14.90;99.90;;;;;;5089393;28;19978;-67
2022/09/09 05:35:16;;;;;;;;;;;15.00;99.90;;;;;;5081372;28;19932;-68
2022/09/09 05:37:49;;;;;;;;;;;15.10;99.90;;;;;;5079775;28;19928;-67
2022/09/09 05:40:17;;;;;;;;;;;15.10;99.90;;;;;;5085202;28;19928;-68
2022/09/09 05:42:45;;;;;;;;;;;15.20;99.90;;;;;;5085269;28;19932;-68
2022/09/09 05:45:12;;;;;;;;;;;15.30;99.90;;;;;;5080363;28;21682;-68
2022/09/09 05:47:38;;;;;;;;;;;15.40;99.90;;;;;;5087485;28;19924;-67
2022/09/09 05:50:05;;;;;;;;;;;15.40;99.90;;;;;;5083350;28;19924;-68
2022/09/09 05:52:32;;;;;;;;;;;15.40;99.90;;;;;;5082893;28;19924;-67
2022/09/09 05:54:59;;;;;;;;;;;15.30;99.90;;;;;;5083014;28;19971;-69
2022/09/09 05:57:26;;;;;;;;;;;15.20;99.90;;;;;;5086243;28;19932;-68
2022/09/09 05:59:54;;;;;;;;;;;15.20;99.90;;;;;;5088434;28;19924;-69
2022/09/09 06:02:21;;;;;;;;;;;15.10;99.90;;;;;;5086688;28;20302;-69
2022/09/09 06:04:47;;;;;;;;;;;15.10;99.90;;;;;;5087274;28;19924;-69
2022/09/09 06:07:15;;;;;;;;;;;15.20;99.90;;;;;;5083481;28;20275;-67
2022/09/09 06:09:42;;;;;;;;;;;15.20;99.90;;;;;;5084256;28;19939;-69
2022/09/09 06:12:08;;;;;;;;;;;15.30;99.90;;;;;;5083212;28;20451;-66
2022/09/09 06:14:36;;;;;;;;;;;15.30;99.90;;;;;;5081697;28;20379;-67
2022/09/09 06:17:05;;;;;;;;;;;15.40;99.90;;;;;;5083263;28;20345;-70
2022/09/09 06:19:31;;;;;;;;;;;15.40;99.90;;;;;;5085126;28;19924;-67
2022/09/09 06:21:58;;;;;;;;;;;15.40;99.90;;;;;;5087377;28;19942;-66
2022/09/09 06:24:25;;;;;;;;;;;15.50;99.90;;;;;;5086529;28;19931;-66
2022/09/09 06:26:51;;;;;;;;;;;15.60;99.90;;;;;;5088171;28;19924;-65
2022/09/09 06:29:18;;;;;;;;;;;15.50;99.90;;;;;;5087986;28;21816;-67
2022/09/09 06:31:45;;;;;;;;;;;15.50;99.90;;;;;;5092410;28;20017;-66
2022/09/09 06:34:13;;;;;;;;;;;15.60;99.90;;;;;;5088045;28;20019;-66
2022/09/09 06:36:39;;;;;;;;;;;15.60;99.90;;;;;;5088951;28;19925;-67
2022/09/09 06:39:08;;;;;;;;;;;15.70;99.90;;;;;;5085925;28;20178;-67
2022/09/09 06:41:35;;;;;;;;;;;15.60;99.90;;;;;;5080839;28;20023;-68
2022/09/09 06:44:01;;;;;;;;;;;15.70;99.90;;;;;;5082850;28;20011;-67
2022/09/09 06:46:30;;;;;;;;;;;15.70;99.90;;;;;;5079715;28;20434;-67
2022/09/09 06:48:58;;;;;;;;;;;15.90;99.90;;;;;;5079489;28;19974;-67
2022/09/09 06:51:27;;;;;;;;;;;16.20;99.90;;;;;;5082411;28;19924;-68
2022/09/09 06:53:55;;;;;;;;;;;16.50;99.90;;;;;;5081734;28;19928;-68
2022/09/09 06:56:23;;;;;;;;;;;16.70;99.90;;;;;;5081527;28;20010;-67
2022/09/09 06:58:50;;;;;;;;;;;16.80;99.90;;;;;;5081140;28;19924;-68
2022/09/09 07:01:18;;;;;;;;;;;16.80;99.90;;;;;;5079778;28;20456;-67
2022/09/09 07:03:47;;;;;;;;;;;16.80;99.90;;;;;;5078735;28;19982;-66
2022/09/09 07:06:15;;;;;;;;;;;16.90;99.90;;;;;;5076754;28;19946;-67
2022/09/09 07:08:43;;;;;;;;;;;17.10;99.90;;;;;;5082159;28;19928;-66
2022/09/09 07:11:10;;;;;;;;;;;17.20;99.90;;;;;;5078789;28;20460;-66
2022/09/09 07:13:37;;;;;;;;;;;17.20;99.90;;;;;;5083143;28;20394;-66
2022/09/09 07:16:04;;;;;;;;;;;17.00;99.90;;;;;;5080552;28;19930;-66
2022/09/09 07:18:31;;;;;;;;;;;16.80;99.90;;;;;;5082053;28;19989;-66
2022/09/09 07:20:58;;;;;;;;;;;16.60;99.90;;;;;;5085211;28;19930;-66
2022/09/09 07:23:25;;;;;;;;;;;16.50;99.90;;;;;;5079124;28;19924;-67
2022/09/09 07:25:53;;;;;;;;;;;16.40;99.90;;;;;;5076563;28;20039;-67
2022/09/09 07:28:20;;;;;;;;;;;16.50;99.90;;;;;;5077720;28;20046;-67
2022/09/09 07:30:53;;;;;;;;;;;16.60;99.90;;;;;;5078084;28;20340;-67
2022/09/09 07:33:20;;;;;;;;;;;16.70;99.90;;;;;;5081541;28;19932;-67
2022/09/09 07:35:47;;;;;;;;;;;17.00;99.90;;;;;;5088890;28;19928;-67
2022/09/09 07:38:14;;;;;;;;;;;17.20;99.90;;;;;;5085936;28;19924;-66
2022/09/09 07:40:41;;;;;;;;;;;17.20;99.90;;;;;;5082060;28;19928;-67
2022/09/09 07:43:09;;;;;;;;;;;17.00;99.90;;;;;;5077090;28;19928;-67
2022/09/09 07:45:36;;;;;;;;;;;17.00;99.90;;;;;;5083583;28;19928;-68
2022/09/09 07:48:03;;;;;;;;;;;16.80;99.90;;;;;;5078334;28;19925;-66
2022/09/09 07:50:30;;;;;;;;;;;16.80;99.90;;;;;;5082333;28;20624;-68
2022/09/09 07:52:57;;;;;;;;;;;16.70;99.90;;;;;;5077371;28;19950;-66
2022/09/09 07:55:25;;;;;;;;;;;16.80;99.90;;;;;;5082783;28;19950;-66
2022/09/09 07:57:51;;;;;;;;;;;16.80;99.90;;;;;;5075712;28;19940;-69
2022/09/09 08:00:21;;;;;;;;;;;16.70;99.90;;;;;;5084169;28;19924;-66
2022/09/09 08:02:48;;;;;;;;;;;16.80;99.90;;;;;;5081159;28;19932;-67
2022/09/09 08:05:16;;;;;;;;;;;16.90;99.90;;;;;;5087350;28;20276;-67
2022/09/09 08:07:44;;;;;;;;;;;16.90;99.90;;;;;;5083738;28;19929;-66
2022/09/09 08:10:10;;;;;;;;;;;17.00;99.90;;;;;;5083948;28;19928;-66
2022/09/09 08:12:37;;;;;;;;;;;17.10;99.90;;;;;;5083539;28;19931;-66
2022/09/09 08:15:04;;;;;;;;;;;17.00;99.90;;;;;;5079940;28;19931;-68
2022/09/09 08:17:32;;;;;;;;;;;17.10;99.90;;;;;;5079532;28;19925;-66
2022/09/09 08:20:04;;;;;;;;;;;17.10;99.90;;;;;;5077266;28;20212;-67
2022/09/09 08:22:31;;;;;;;;;;;17.00;99.90;;;;;;5080510;28;20478;-68
2022/09/09 08:24:58;;;;;;;;;;;17.10;99.90;;;;;;5083482;28;19982;-66
2022/09/09 08:27:25;;;;;;;;;;;17.00;99.90;;;;;;5084753;28;19928;-66
2022/09/09 08:29:52;;;;;;;;;;;17.00;99.90;;;;;;5080025;28;19939;-67
2022/09/09 08:32:19;;;;;;;;;;;17.20;99.90;;;;;;5078880;28;20023;-68
2022/09/09 08:34:49;;;;;;;;;;;17.20;99.90;;;;;;5083653;28;20345;-66
2022/09/09 08:37:15;;;;;;;;;;;17.60;99.90;;;;;;5079501;28;19935;-68
2022/09/09 08:39:42;;;;;;;;;;;17.60;99.90;;;;;;5087761;28;19974;-67
2022/09/09 08:42:31;;;;;;;;;;;17.60;99.90;;;;;;5089759;28;20518;-68
2022/09/09 08:45:15;;;;;;;;;;;17.40;99.90;;;;;;5085015;28;20319;-67
2022/09/09 08:47:47;;;;;;;;;;;17.20;99.90;;;;;;5087081;28;19944;-66
2022/09/09 08:50:24;;;;;;;;;;;17.20;99.90;;;;;;5086940;28;19924;-66
2022/09/09 08:52:53;;;;;;;;;;;17.10;99.90;;;;;;5083775;28;19935;-67
2022/09/09 08:55:23;;;;;;;;;;;16.90;99.90;;;;;;5084027;28;19932;-66
2022/09/09 08:57:51;;;;;;;;;;;16.90;99.90;;;;;;5084168;28;20023;-66
2022/09/09 09:00:18;;;;;;;;;;;16.80;99.90;;;;;;5084285;28;19927;-67
2022/09/09 09:02:49;;;;;;;;;;;16.80;99.90;;;;;;5084338;28;20613;-68
2022/09/09 09:05:20;;;;;;;;;;;16.70;99.90;;;;;;5074472;28;22222;-67
2022/09/09 09:07:54;;;;;;;;;;;16.60;99.90;;;;;;5081600;28;22385;-68
2022/09/09 09:10:26;;;;;;;;;;;16.60;99.90;;;;;;5081309;28;19924;-67
2022/09/09 09:12:53;;;;;;;;;;;16.70;99.90;;;;;;5080106;28;20124;-67
2022/09/09 09:15:22;;;;;;;;;;;16.60;99.90;;;;;;5077586;28;19932;-68
2022/09/09 09:17:49;;;;;;;;;;;16.60;99.90;;;;;;5079680;28;19924;-67
2022/09/09 09:20:17;;;;;;;;;;;16.60;99.90;;;;;;5085129;28;20370;-67
2022/09/09 09:22:48;;;;;;;;;;;16.70;99.90;;;;;;5086007;28;20079;-67
2022/09/09 09:25:18;;;;;;;;;;;16.70;99.90;;;;;;5081167;28;19942;-67
2022/09/09 09:27:48;;;;;;;;;;;16.80;99.90;;;;;;5081092;28;19924;-68
2022/09/09 09:30:16;;;;;;;;;;;16.80;99.90;;;;;;5088535;28;20014;-68
2022/09/09 09:32:47;;;;;;;;;;;16.70;99.90;;;;;;5083745;28;19933;-67
2022/09/09 09:35:14;;;;;;;;;;;16.80;99.90;;;;;;5088796;28;19948;-67
2022/09/09 09:37:43;;;;;;;;;;;16.90;99.90;;;;;;5089481;28;19984;-68
2022/09/09 09:40:10;;;;;;;;;;;17.00;99.90;;;;;;5088142;28;19970;-68
2022/09/09 09:42:39;;;;;;;;;;;17.10;99.90;;;;;;5085606;28;19924;-68
2022/09/09 09:45:16;;;;;;;;;;;17.30;99.90;;;;;;5084240;28;19928;-68
2022/09/09 09:47:42;;;;;;;;;;;17.40;99.90;;;;;;5082406;28;20357;-68
2022/09/09 09:50:17;;;;;;;;;;;17.30;99.90;;;;;;5086509;28;19924;-67
2022/09/09 09:52:54;;;;;;;;;;;17.30;99.90;;;;;;5081832;28;20019;-68
2022/09/09 09:55:20;;;;;;;;;;;17.20;99.90;;;;;;5084183;28;19924;-69
2022/09/09 09:57:48;;;;;;;;;;;17.20;99.90;;;;;;5087564;28;19924;-68
2022/09/09 10:00:17;;;;;;;;;;;17.10;99.90;;;;;;5081529;28;20609;-68
2022/09/09 10:02:44;;;;;;;;;;;17.10;99.90;;;;;;5086869;28;19975;-68
2022/09/09 10:05:14;;;;;;;;;;;17.10;99.90;;;;;;5087821;28;19930;-68
2022/09/09 10:07:41;;;;;;;;;;;17.20;99.90;;;;;;5086627;28;19927;-67
2022/09/09 10:10:11;;;;;;;;;;;17.20;99.90;;;;;;5079419;28;19932;-67
2022/09/09 10:12:43;;;;;;;;;;;17.20;99.90;;;;;;5083461;28;19970;-68
2022/09/09 10:15:20;;;;;;;;;;;17.20;99.90;;;;;;5083630;28;20057;-67
2022/09/09 10:17:55;;;;;;;;;;;17.10;99.90;;;;;;5082052;28;20075;-66
2022/09/09 10:20:28;;;;;;;;;;;17.10;99.90;;;;;;5082898;28;19932;-69
2022/09/09 10:23:01;;;;;;;;;;;17.20;99.90;;;;;;5082231;28;19930;-66
2022/09/09 10:25:35;;;;;;;;;;;17.60;99.90;;;;;;5083157;28;20417;-67
2022/09/09 10:28:11;;;;;;;;;;;17.90;99.90;;;;;;5084126;28;19928;-67
2022/09/09 10:30:44;;;;;;;;;;;18.00;99.90;;;;;;5083516;28;20395;-66
2022/09/09 10:33:15;;;;;;;;;;;18.10;99.90;;;;;;5080515;28;19931;-67
2022/09/09 10:35:45;;;;;;;;;;;18.10;99.90;;;;;;5080058;28;19928;-67
2022/09/09 10:38:16;;;;;;;;;;;18.00;99.90;;;;;;5086663;28;19928;-66
2022/09/09 10:40:45;;;;;;;;;;;18.10;99.90;;;;;;5092749;28;19947;-67
2022/09/09 10:43:18;;;;;;;;;;;18.10;99.90;;;;;;5086542;28;20007;-67
2022/09/09 10:45:51;;;;;;;;;;;18.10;99.90;;;;;;5088688;28;19930;-68
2022/09/09 10:48:26;;;;;;;;;;;18.10;99.90;;;;;;5080672;28;19932;-69
2022/09/09 10:50:56;;;;;;;;;;;18.00;99.90;;;;;;5085593;28;19924;-68
2022/09/09 10:53:28;;;;;;;;;;;17.80;99.90;;;;;;5080633;28;19936;-68
2022/09/09 10:55:59;;;;;;;;;;;17.70;99.90;;;;;;5080238;28;19935;-70
2022/09/09 10:58:29;;;;;;;;;;;17.70;99.90;;;;;;5076897;28;19971;-67
2022/09/09 11:01:00;;;;;;;;;;;17.60;99.90;;;;;;5080748;28;20021;-67
2022/09/09 11:03:29;;;;;;;;;;;17.60;99.90;;;;;;5078592;28;19931;-67
2022/09/09 11:05:59;;;;;;;;;;;17.60;99.90;;;;;;5082667;28;19932;-66
2022/09/09 11:08:27;;;;;;;;;;;17.80;99.90;;;;;;5080719;28;19959;-67
2022/09/09 11:10:59;;;;;;;;;;;18.10;99.90;;;;;;5081810;28;19928;-67
2022/09/09 11:16:17;;;;;;;;;;;18.20;99.90;;;;;;4972686;28;20028;-65
2022/09/09 11:18:45;;;;;;;;;;;18.50;99.90;;;;;;4978368;28;20699;-67
2022/09/09 11:21:17;;;;;;;;;;;18.60;99.90;;;;;;4984499;28;19938;-66
2022/09/09 11:23:46;;;;;;;;;;;18.60;99.90;;;;;;4962339;28;19926;-65
2022/09/09 11:26:17;;;;;;;;;;;18.70;99.90;;;;;;4963098;28;20472;-68
2022/09/09 11:28:53;;;;;;;;;;;18.60;99.90;;;;;;4963113;28;19926;-67
2022/09/09 11:31:33;;;;;;;;;;;18.70;99.90;;;;;;4968111;28;19936;-67
2022/09/09 11:34:12;;;;;;;;;;;19.10;99.90;;;;;;4964467;28;19933;-66
2022/09/09 11:36:54;;;;;;;;;;;19.40;99.90;;;;;;4964141;28;19934;-66
2022/09/09 11:39:35;;;;;;;;;;;19.50;99.90;;;;;;4966352;28;19930;-66
2022/09/09 11:42:06;;;;;;;;;;;19.50;99.90;;;;;;4972762;28;19937;-66
2022/09/09 11:44:33;;;;;;;;;;;19.30;99.90;;;;;;4964387;28;19941;-66
2022/09/09 11:47:01;;;;;;;;;;;19.10;99.90;;;;;;4964208;28;19933;-66
2022/09/09 11:49:29;;;;;;;;;;;18.90;99.90;;;;;;4959475;28;19933;-67
2022/09/09 11:51:56;;;;;;;;;;;18.80;99.90;;;;;;4963419;28;19926;-66
2022/09/09 11:54:29;;;;;;;;;;;18.90;99.90;;;;;;4965990;28;19934;-66
2022/09/09 11:56:56;;;;;;;;;;;19.00;99.90;;;;;;4962224;28;19930;-66
2022/09/09 11:59:24;;;;;;;;;;;19.20;99.90;;;;;;4960527;28;19962;-66
2022/09/09 12:01:51;;;;;;;;;;;19.40;99.90;;;;;;4965254;28;19937;-67
2022/09/09 12:04:27;;;;;;;;;;;19.50;99.90;;;;;;4963606;28;19926;-66
2022/09/09 12:06:55;;;;;;;;;;;19.40;99.90;;;;;;4966007;28;19944;-67
2022/09/09 12:09:28;;;;;;;;;;;19.10;99.90;;;;;;4964081;28;19933;-65
2022/09/09 12:12:05;;;;;;;;;;;19.00;99.90;;;;;;4957928;28;20334;-66
2022/09/09 12:14:36;;;;;;;;;;;19.10;99.90;;;;;;4956710;28;19926;-67
2022/09/09 12:17:10;;;;;;;;;;;19.30;99.90;;;;;;4947149;28;21116;-65
2022/09/09 12:19:40;;;;;;;;;;;19.40;99.90;;;;;;4957499;28;20300;-66
2022/09/09 12:22:09;;;;;;;;;;;19.40;99.90;;;;;;4955727;28;19926;-66
2022/09/09 12:24:38;;;;;;;;;;;19.50;99.90;;;;;;4952295;28;19973;-66
2022/09/09 12:27:09;;;;;;;;;;;19.70;99.90;;;;;;4956944;28;19933;-67
2022/09/09 12:29:42;;;;;;;;;;;19.70;99.90;;;;;;4966229;28;20388;-66
2022/09/09 12:32:11;;;;;;;;;;;19.60;99.90;;;;;;4964385;28;19934;-67
2022/09/09 12:34:43;;;;;;;;;;;19.70;99.90;;;;;;4949953;28;19926;-66
2022/09/09 12:37:18;;;;;;;;;;;19.80;99.90;;;;;;4952061;28;20033;-66
2022/09/09 12:39:46;;;;;;;;;;;19.90;99.90;;;;;;4961775;28;20024;-67
2022/09/09 12:42:19;;;;;;;;;;;19.90;99.90;;;;;;4959763;28;19937;-67
2022/09/09 12:44:53;;;;;;;;;;;20.00;99.90;;;;;;4952814;28;19930;-67
2022/09/09 12:47:20;;;;;;;;;;;19.90;99.90;;;;;;4957163;28;19996;-65
2022/09/09 12:49:49;;;;;;;;;;;19.80;99.90;;;;;;4955116;28;19933;-68
2022/09/09 12:52:20;;;;;;;;;;;19.80;99.90;;;;;;4958745;28;20025;-69
2022/09/09 12:54:48;;;;;;;;;;;19.70;99.90;;;;;;4962890;28;19927;-67
2022/09/09 12:57:15;;;;;;;;;;;19.80;99.90;;;;;;4958472;28;19972;-66
2022/09/09 12:59:44;;;;;;;;;;;19.80;99.90;;;;;;4963587;28;19930;-65
2022/09/09 13:02:17;;;;;;;;;;;19.70;99.90;;;;;;4961765;28;20251;-65
2022/09/09 13:04:44;;;;;;;;;;;19.70;99.90;;;;;;4964489;28;19932;-66
2022/09/09 13:07:13;;;;;;;;;;;19.70;99.90;;;;;;4991074;28;19930;-65
2022/09/09 13:09:40;;;;;;;;;;;19.80;99.90;;;;;;4960930;28;19932;-66
2022/09/09 13:12:10;;;;;;;;;;;19.70;99.90;;;;;;4958506;28;20408;-66
2022/09/09 13:14:38;;;;;;;;;;;19.70;99.90;;;;;;4962527;28;20385;-66
2022/09/09 13:17:06;;;;;;;;;;;19.50;99.90;;;;;;4965328;28;19926;-66
2022/09/09 13:19:35;;;;;;;;;;;19.50;99.90;;;;;;4973725;23;20400;-66
2022/09/09 13:22:12;;;;;;;;;;;19.50;99.90;;;;;;4974713;28;20166;-67
2022/09/09 13:24:40;;;;;;;;;;;19.50;99.90;;;;;;4974648;28;19933;-66
2022/09/09 13:27:24;;;;;;;;;;;19.60;99.90;;;;;;4977524;28;20286;-66
2022/09/09 13:29:52;;;;;;;;;;;19.80;99.90;;;;;;4978637;28;20489;-64
2022/09/09 13:32:18;;;;;;;;;;;20.00;99.90;;;;;;4980967;28;19933;-66
2022/09/09 13:34:51;;;;;;;;;;;20.10;99.90;;;;;;4985230;28;19933;-66
2022/09/09 13:37:21;;;;;;;;;;;20.00;99.90;;;;;;4979698;28;19934;-67
2022/09/09 13:39:53;;;;;;;;;;;20.00;99.90;;;;;;4982175;28;20024;-66
2022/09/09 13:42:26;;;;;;;;;;;20.10;99.90;;;;;;4977326;28;20480;-64
2022/09/09 13:44:53;;;;;;;;;;;20.10;99.90;;;;;;4979793;28;19945;-65
2022/09/09 13:47:20;;;;;;;;;;;20.20;99.90;;;;;;4981554;28;20385;-68
2022/09/09 13:49:47;;;;;;;;;;;20.30;99.90;;;;;;4975066;28;19961;-68
2022/09/09 13:52:15;;;;;;;;;;;20.50;99.90;;;;;;4981755;28;19936;-66
2022/09/09 13:54:42;;;;;;;;;;;20.80;99.90;;;;;;4975080;28;19925;-67
2022/09/09 13:57:17;;;;;;;;;;;20.70;99.90;;;;;;4981033;28;19933;-64
2022/09/09 13:59:43;;;;;;;;;;;20.50;99.90;;;;;;4973410;28;20512;-67
2022/09/09 14:02:10;;;;;;;;;;;20.20;99.90;;;;;;4972631;28;20310;-69
2022/09/09 14:04:37;;;;;;;;;;;19.90;99.90;;;;;;4973454;28;20392;-65
2022/09/09 14:07:04;;;;;;;;;;;19.90;99.90;;;;;;4976955;28;20388;-66
2022/09/09 14:09:30;;;;;;;;;;;19.80;99.90;;;;;;4976851;28;19936;-66
2022/09/09 14:11:57;;;;;;;;;;;19.90;99.90;;;;;;4979009;28;19926;-66
2022/09/09 14:14:26;;;;;;;;;;;20.00;99.90;;;;;;4978620;28;19933;-66
2022/09/09 14:16:52;;;;;;;;;;;20.10;99.90;;;;;;4980591;28;20012;-66
2022/09/09 14:19:19;;;;;;;;;;;20.20;99.90;;;;;;4977562;28;19937;-66
2022/09/09 14:21:46;;;;;;;;;;;20.40;99.90;;;;;;4980143;28;19941;-66
2022/09/09 14:24:13;;;;;;;;;;;20.60;99.90;;;;;;4974318;28;20029;-67
2022/09/09 14:26:40;;;;;;;;;;;20.60;99.90;;;;;;4968804;28;19933;-67
2022/09/09 14:29:07;;;;;;;;;;;20.40;99.90;;;;;;4971393;28;19937;-66